sensor_id;sensor_type;location;lat;lon;timestamp;pressure;altitude;pressure_sealevel;temperature;humidity
73817;BME280;62146;53.232;-1.304;2023-03-13T00:00:59;97820.41;;;11.61;100.00
73817;BME280;62146;53.232;-1.304;2023-03-13T00:03:27;97811.38;;;11.62;100.00
73817;BME280;62146;53.232;-1.304;2023-03-13T00:05:57;97815.56;;;11.63;100.00
73817;BME280;62146;53.232;-1.304;2023-03-13T00:08:27;97811.38;;;11.62;100.00
73817;BME280;62146;53.232;-1.304;2023-03-13T00:10:54;97802.31;;;11.63;100.00
73817;BME280;62146;53.232;-1.304;2023-03-13T00:13:21;97812.16;;;11.62;100.00
73817;BME280;62146;53.232;-1.304;2023-03-13T00:15:47;97814.19;;;11.65;100.00
73817;BME280;62146;53.232;-1.304;2023-03-13T00:18:15;97817.63;;;11.66;100.00
73817;BME280;62146;53.232;-1.304;2023-03-13T00:20:41;97808.88;;;11.65;100.00
73817;BME280;62146;53.232;-1.304;2023-03-13T00:23:08;97799.81;;;11.66;100.00
73817;BME280;62146;53.232;-1.304;2023-03-13T00:25:35;97810.44;;;11.66;100.00
73817;BME280;62146;53.232;-1.304;2023-03-13T00:28:01;97802.16;;;11.68;100.00
73817;BME280;62146;53.232;-1.304;2023-03-13T00:30:28;97807.16;;;11.69;100.00
73817;BME280;62146;53.232;-1.304;2023-03-13T00:32:54;97792.03;;;11.70;100.00
73817;BME280;62146;53.232;-1.304;2023-03-13T00:35:21;97789.03;;;11.71;100.00
73817;BME280;62146;53.232;-1.304;2023-03-13T00:37:48;97796.22;;;11.71;100.00
73817;BME280;62146;53.232;-1.304;2023-03-13T00:40:15;97794.34;;;11.71;100.00
73817;BME280;62146;53.232;-1.304;2023-03-13T00:42:42;97791.88;;;11.75;100.00
73817;BME280;62146;53.232;-1.304;2023-03-13T00:45:09;97786.56;;;11.75;100.00
73817;BME280;62146;53.232;-1.304;2023-03-13T00:47:35;97761.56;;;11.76;100.00
73817;BME280;62146;53.232;-1.304;2023-03-13T00:50:02;97763.13;;;11.77;100.00
73817;BME280;62146;53.232;-1.304;2023-03-13T00:52:29;97742.69;;;11.77;100.00
73817;BME280;62146;53.232;-1.304;2023-03-13T00:54:55;97730.97;;;11.78;100.00
73817;BME280;62146;53.232;-1.304;2023-03-13T00:57:22;97721.13;;;11.78;100.00
73817;BME280;62146;53.232;-1.304;2023-03-13T00:59:48;97720.00;;;11.79;100.00
73817;BME280;62146;53.232;-1.304;2023-03-13T01:02:15;97719.72;;;11.81;100.00
73817;BME280;62146;53.232;-1.304;2023-03-13T01:04:42;97718.94;;;11.80;100.00
73817;BME280;62146;53.232;-1.304;2023-03-13T01:07:08;97717.06;;;11.81;100.00
73817;BME280;62146;53.232;-1.304;2023-03-13T01:09:35;97707.22;;;11.81;100.00
73817;BME280;62146;53.232;-1.304;2023-03-13T01:12:01;97696.28;;;11.83;100.00
73817;BME280;62146;53.232;-1.304;2023-03-13T01:14:28;97693.63;;;11.83;100.00
73817;BME280;62146;53.232;-1.304;2023-03-13T01:16:55;97695.19;;;11.84;100.00
73817;BME280;62146;53.232;-1.304;2023-03-13T01:19:21;97691.44;;;11.85;100.00
73817;BME280;62146;53.232;-1.304;2023-03-13T01:21:48;97699.41;;;11.85;100.00
73817;BME280;62146;53.232;-1.304;2023-03-13T01:24:14;97701.28;;;11.84;100.00
73817;BME280;62146;53.232;-1.304;2023-03-13T01:26:42;97695.97;;;11.84;100.00
73817;BME280;62146;53.232;-1.304;2023-03-13T01:29:08;97683.47;;;11.85;100.00
73817;BME280;62146;53.232;-1.304;2023-03-13T01:31:35;97681.28;;;11.87;100.00
73817;BME280;62146;53.232;-1.304;2023-03-13T01:34:04;97672.22;;;11.88;100.00
73817;BME280;62146;53.232;-1.304;2023-03-13T01:36:31;97671.91;;;11.89;100.00
73817;BME280;62146;53.232;-1.304;2023-03-13T01:38:58;97646.75;;;11.87;100.00
73817;BME280;62146;53.232;-1.304;2023-03-13T01:41:27;97620.19;;;11.87;100.00
73817;BME280;62146;53.232;-1.304;2023-03-13T01:43:54;97605.81;;;11.88;100.00
73817;BME280;62146;53.232;-1.304;2023-03-13T01:46:25;97578.50;;;11.87;100.00
73817;BME280;62146;53.232;-1.304;2023-03-13T01:48:59;97561.00;;;11.86;100.00
73817;BME280;62146;53.232;-1.304;2023-03-13T01:51:32;97553.53;;;11.88;100.00
73817;BME280;62146;53.232;-1.304;2023-03-13T01:54:27;97519.28;;;11.87;100.00
73817;BME280;62146;53.232;-1.304;2023-03-13T01:57:18;97543.97;;;11.87;100.00
73817;BME280;62146;53.232;-1.304;2023-03-13T02:00:02;97561.00;;;11.86;100.00
73817;BME280;62146;53.232;-1.304;2023-03-13T02:02:30;97569.44;;;11.88;100.00
73817;BME280;62146;53.232;-1.304;2023-03-13T02:05:00;97577.41;;;11.88;100.00
73817;BME280;62146;53.232;-1.304;2023-03-13T02:07:32;97569.13;;;11.90;100.00
73817;BME280;62146;53.232;-1.304;2023-03-13T02:10:00;97568.34;;;11.89;100.00
73817;BME280;62146;53.232;-1.304;2023-03-13T02:12:32;97555.84;;;11.90;100.00
73817;BME280;62146;53.232;-1.304;2023-03-13T02:15:03;97576.31;;;11.89;100.00
73817;BME280;62146;53.232;-1.304;2023-03-13T02:17:31;97556.63;;;11.90;100.00
73817;BME280;62146;53.232;-1.304;2023-03-13T02:19:59;97572.22;;;11.92;100.00
73817;BME280;62146;53.232;-1.304;2023-03-13T02:22:39;97560.97;;;11.95;100.00
73817;BME280;62146;53.232;-1.304;2023-03-13T02:27:58;97526.00;;;11.93;100.00
73817;BME280;62146;53.232;-1.304;2023-03-13T02:30:26;97523.03;;;11.94;100.00
73817;BME280;62146;53.232;-1.304;2023-03-13T02:32:54;97521.13;;;11.95;100.00
73817;BME280;62146;53.232;-1.304;2023-03-13T02:35:21;97518.97;;;11.97;100.00
73817;BME280;62146;53.232;-1.304;2023-03-13T02:37:51;97510.22;;;11.96;100.00
73817;BME280;62146;53.232;-1.304;2023-03-13T02:40:23;97515.19;;;11.98;100.00
73817;BME280;62146;53.232;-1.304;2023-03-13T02:42:52;97504.59;;;11.98;100.00
73817;BME280;62146;53.232;-1.304;2023-03-13T02:45:20;97506.13;;;11.99;100.00
73817;BME280;62146;53.232;-1.304;2023-03-13T02:47:47;97491.78;;;12.00;100.00
73817;BME280;62146;53.232;-1.304;2023-03-13T02:50:14;97494.44;;;12.00;100.00
73817;BME280;62146;53.232;-1.304;2023-03-13T02:52:57;97485.34;;;12.01;100.00
73817;BME280;62146;53.232;-1.304;2023-03-13T02:55:29;97478.16;;;12.01;100.00
73817;BME280;62146;53.232;-1.304;2023-03-13T02:57:56;97472.84;;;12.01;100.00
73817;BME280;62146;53.232;-1.304;2023-03-13T03:00:23;97471.75;;;12.02;100.00
73817;BME280;62146;53.232;-1.304;2023-03-13T03:02:53;97466.91;;;12.04;100.00
73817;BME280;62146;53.232;-1.304;2023-03-13T03:05:19;97451.28;;;12.03;100.00
73817;BME280;62146;53.232;-1.304;2023-03-13T03:07:50;97453.63;;;12.04;100.00
73817;BME280;62146;53.232;-1.304;2023-03-13T03:10:17;97444.56;;;12.05;100.00
73817;BME280;62146;53.232;-1.304;2023-03-13T03:12:44;97446.44;;;12.04;100.00
73817;BME280;62146;53.232;-1.304;2023-03-13T03:15:11;97430.16;;;12.06;100.00
73817;BME280;62146;53.232;-1.304;2023-03-13T03:17:38;97429.06;;;12.07;100.00
73817;BME280;62146;53.232;-1.304;2023-03-13T03:20:05;97427.22;;;12.07;100.00
73817;BME280;62146;53.232;-1.304;2023-03-13T03:22:38;97422.66;;;12.08;100.00
73817;BME280;62146;53.232;-1.304;2023-03-13T03:25:07;97415.16;;;12.10;100.00
73817;BME280;62146;53.232;-1.304;2023-03-13T03:27:34;97404.06;;;12.08;100.00
73817;BME280;62146;53.232;-1.304;2023-03-13T03:30:05;97424.69;;;12.11;100.00
73817;BME280;62146;53.232;-1.304;2023-03-13T03:32:32;97414.38;;;12.09;100.00
73817;BME280;62146;53.232;-1.304;2023-03-13T03:34:58;97423.44;;;12.08;100.00
73817;BME280;62146;53.232;-1.304;2023-03-13T03:37:25;97412.50;;;12.10;100.00
73817;BME280;62146;53.232;-1.304;2023-03-13T03:39:52;97392.00;;;12.10;100.00
73817;BME280;62146;53.232;-1.304;2023-03-13T03:42:18;97389.69;;;12.09;100.00
73817;BME280;62146;53.232;-1.304;2023-03-13T03:44:45;97395.13;;;12.12;100.00
73817;BME280;62146;53.232;-1.304;2023-03-13T03:47:11;97391.72;;;12.12;100.00
73817;BME280;62146;53.232;-1.304;2023-03-13T03:49:38;97403.88;;;12.13;100.00
73817;BME280;62146;53.232;-1.304;2023-03-13T03:52:05;97401.22;;;12.13;100.00
73817;BME280;62146;53.232;-1.304;2023-03-13T03:54:32;97397.47;;;12.14;100.00
73817;BME280;62146;53.232;-1.304;2023-03-13T03:56:59;97397.47;;;12.14;100.00
73817;BME280;62146;53.232;-1.304;2023-03-13T03:59:25;97400.91;;;12.14;100.00
73817;BME280;62146;53.232;-1.304;2023-03-13T04:01:52;97402.47;;;12.15;100.00
73817;BME280;62146;53.232;-1.304;2023-03-13T04:04:19;97397.16;;;12.15;100.00
73817;BME280;62146;53.232;-1.304;2023-03-13T04:06:46;97399.03;;;12.15;100.00
73817;BME280;62146;53.232;-1.304;2023-03-13T04:09:12;97386.19;;;12.17;100.00
73817;BME280;62146;53.232;-1.304;2023-03-13T04:11:39;97403.25;;;12.16;100.00
73817;BME280;62146;53.232;-1.304;2023-03-13T04:14:05;97386.53;;;12.15;100.00
73817;BME280;62146;53.232;-1.304;2023-03-13T04:16:32;97387.31;;;12.16;100.00
73817;BME280;62146;53.232;-1.304;2023-03-13T04:18:59;97362.63;;;12.15;100.00
73817;BME280;62146;53.232;-1.304;2023-03-13T04:21:25;97370.25;;;12.17;100.00
73817;BME280;62146;53.232;-1.304;2023-03-13T04:23:52;97359.97;;;12.15;100.00
73817;BME280;62146;53.232;-1.304;2023-03-13T04:26:18;97353.53;;;12.16;100.00
73817;BME280;62146;53.232;-1.304;2023-03-13T04:28:45;97335.28;;;12.15;100.00
73817;BME280;62146;53.232;-1.304;2023-03-13T04:31:12;97338.72;;;12.15;100.00
73817;BME280;62146;53.232;-1.304;2023-03-13T04:33:39;97337.94;;;12.15;100.00
73817;BME280;62146;53.232;-1.304;2023-03-13T04:36:06;97345.56;;;12.16;100.00
73817;BME280;62146;53.232;-1.304;2023-03-13T04:38:33;97332.63;;;12.15;100.00
73817;BME280;62146;53.232;-1.304;2023-03-13T04:40:59;97329.97;;;12.15;100.00
73817;BME280;62146;53.232;-1.304;2023-03-13T04:43:26;97322.78;;;12.15;100.00
73817;BME280;62146;53.232;-1.304;2023-03-13T04:45:52;97319.34;;;12.15;100.00
73817;BME280;62146;53.232;-1.304;2023-03-13T04:48:20;97316.69;;;12.15;100.00
73817;BME280;62146;53.232;-1.304;2023-03-13T04:50:47;97308.72;;;12.15;100.00
73817;BME280;62146;53.232;-1.304;2023-03-13T04:53:14;97299.63;;;12.16;100.00
73817;BME280;62146;53.232;-1.304;2023-03-13T04:55:41;97304.94;;;12.16;100.00
73817;BME280;62146;53.232;-1.304;2023-03-13T04:58:08;97294.00;;;12.17;100.00
73817;BME280;62146;53.232;-1.304;2023-03-13T05:00:34;97298.53;;;12.17;100.00
73817;BME280;62146;53.232;-1.304;2023-03-13T05:03:01;97293.22;;;12.17;100.00
73817;BME280;62146;53.232;-1.304;2023-03-13T05:05:27;97286.34;;;12.16;100.00
73817;BME280;62146;53.232;-1.304;2023-03-13T05:07:54;97280.28;;;12.15;100.00
73817;BME280;62146;53.232;-1.304;2023-03-13T05:10:20;97280.28;;;12.15;100.00
73817;BME280;62146;53.232;-1.304;2023-03-13T05:12:47;97260.09;;;12.14;100.00
73817;BME280;62146;53.232;-1.304;2023-03-13T05:15:13;97264.63;;;12.14;100.00
73817;BME280;62146;53.232;-1.304;2023-03-13T05:17:40;97265.09;;;12.16;100.00
73817;BME280;62146;53.232;-1.304;2023-03-13T05:20:07;97252.13;;;12.14;100.00
73817;BME280;62146;53.232;-1.304;2023-03-13T05:22:37;97249.47;;;12.14;100.00
73817;BME280;62146;53.232;-1.304;2023-03-13T05:25:04;97244.63;;;12.16;100.00
73817;BME280;62146;53.232;-1.304;2023-03-13T05:27:31;97241.50;;;12.14;100.00
73817;BME280;62146;53.232;-1.304;2023-03-13T05:29:57;97251.34;;;12.14;100.00
73817;BME280;62146;53.232;-1.304;2023-03-13T05:32:24;97235.41;;;12.14;100.00
73817;BME280;62146;53.232;-1.304;2023-03-13T05:34:50;97232.31;;;12.12;100.00
73817;BME280;62146;53.232;-1.304;2023-03-13T05:37:17;97211.84;;;12.12;100.00
73817;BME280;62146;53.232;-1.304;2023-03-13T05:39:43;97202.34;;;12.11;100.00
73817;BME280;62146;53.232;-1.304;2023-03-13T05:42:10;97211.72;;;12.09;100.00
73817;BME280;62146;53.232;-1.304;2023-03-13T05:44:37;97169.88;;;12.06;100.00
73817;BME280;62146;53.232;-1.304;2023-03-13T05:47:03;97198.66;;;12.04;100.00
73817;BME280;62146;53.232;-1.304;2023-03-13T05:49:30;97197.06;;;12.03;100.00
73817;BME280;62146;53.232;-1.304;2023-03-13T05:51:56;97196.00;;;12.04;100.00
73817;BME280;62146;53.232;-1.304;2023-03-13T05:54:23;97188.34;;;12.03;100.00
73817;BME280;62146;53.232;-1.304;2023-03-13T05:56:49;97191.66;;;12.00;100.00
73817;BME280;62146;53.232;-1.304;2023-03-13T05:59:17;97177.56;;;11.99;100.00
73817;BME280;62146;53.232;-1.304;2023-03-13T06:01:44;97182.88;;;11.99;100.00
73817;BME280;62146;53.232;-1.304;2023-03-13T06:04:10;97159.00;;;11.99;100.00
73817;BME280;62146;53.232;-1.304;2023-03-13T06:06:37;97179.16;;;12.00;100.00
73817;BME280;62146;53.232;-1.304;2023-03-13T06:09:04;97172.94;;;11.96;100.00
73817;BME280;62146;53.232;-1.304;2023-03-13T06:11:31;97175.59;;;11.96;100.00
73817;BME280;62146;53.232;-1.304;2023-03-13T06:13:58;97175.13;;;11.94;100.00
73817;BME280;62146;53.232;-1.304;2023-03-13T06:16:24;97174.03;;;11.95;100.00
73817;BME280;62146;53.232;-1.304;2023-03-13T06:18:51;97182.00;;;11.95;100.00
73817;BME280;62146;53.232;-1.304;2023-03-13T06:21:17;97153.59;;;11.96;100.00
73817;BME280;62146;53.232;-1.304;2023-03-13T06:23:44;97157.31;;;11.95;100.00
73817;BME280;62146;53.232;-1.304;2023-03-13T06:26:10;97176.69;;;11.95;100.00
73817;BME280;62146;53.232;-1.304;2023-03-13T06:28:37;97189.19;;;11.95;100.00
73817;BME280;62146;53.232;-1.304;2023-03-13T06:31:05;97170.59;;;11.95;100.00
73817;BME280;62146;53.232;-1.304;2023-03-13T06:33:33;97162.97;;;11.93;100.00
73817;BME280;62146;53.232;-1.304;2023-03-13T06:36:00;97152.66;;;11.92;100.00
73817;BME280;62146;53.232;-1.304;2023-03-13T06:38:28;97150.97;;;11.87;100.00
73817;BME280;62146;53.232;-1.304;2023-03-13T06:40:55;97151.31;;;11.86;100.00
73817;BME280;62146;53.232;-1.304;2023-03-13T06:43:22;97162.16;;;11.81;100.00
73817;BME280;62146;53.232;-1.304;2023-03-13T06:45:48;97142.66;;;11.77;100.00
73817;BME280;62146;53.232;-1.304;2023-03-13T06:48:15;97157.34;;;11.75;100.00
73817;BME280;62146;53.232;-1.304;2023-03-13T06:50:42;97151.56;;;11.73;100.00
73817;BME280;62146;53.232;-1.304;2023-03-13T06:53:17;97157.22;;;11.71;100.00
73817;BME280;62146;53.232;-1.304;2023-03-13T06:55:45;97141.28;;;11.71;100.00
73817;BME280;62146;53.232;-1.304;2023-03-13T06:58:12;97150.03;;;11.72;100.00
73817;BME280;62146;53.232;-1.304;2023-03-13T07:00:56;97148.91;;;11.73;100.00
73817;BME280;62146;53.232;-1.304;2023-03-13T07:03:23;97139.88;;;11.74;100.00
73817;BME280;62146;53.232;-1.304;2023-03-13T07:05:57;97107.25;;;11.73;100.00
73817;BME280;62146;53.232;-1.304;2023-03-13T07:08:24;97138.44;;;11.76;100.00
73817;BME280;62146;53.232;-1.304;2023-03-13T07:10:52;97140.78;;;11.77;100.00
73817;BME280;62146;53.232;-1.304;2023-03-13T07:13:19;97147.63;;;11.78;100.00
73817;BME280;62146;53.232;-1.304;2023-03-13T07:15:47;97159.50;;;11.81;100.00
73817;BME280;62146;53.232;-1.304;2023-03-13T07:18:13;97145.09;;;11.82;100.00
73817;BME280;62146;53.232;-1.304;2023-03-13T07:20:40;97153.84;;;11.82;100.00
73817;BME280;62146;53.232;-1.304;2023-03-13T07:23:07;97154.75;;;11.86;100.00
73817;BME280;62146;53.232;-1.304;2023-03-13T07:25:34;97149.44;;;11.86;100.00
73817;BME280;62146;53.232;-1.304;2023-03-13T07:28:00;97137.72;;;11.87;100.00
73817;BME280;62146;53.232;-1.304;2023-03-13T07:30:27;97094.91;;;11.89;100.00
73817;BME280;62146;53.232;-1.304;2023-03-13T07:32:54;97116.94;;;11.89;100.00
73817;BME280;62146;53.232;-1.304;2023-03-13T07:35:20;97135.19;;;11.91;100.00
73817;BME280;62146;53.232;-1.304;2023-03-13T07:37:47;97132.22;;;11.92;100.00
73817;BME280;62146;53.232;-1.304;2023-03-13T07:40:13;97124.69;;;11.94;100.00
73817;BME280;62146;53.232;-1.304;2023-03-13T07:42:40;97106.09;;;11.94;100.00
73817;BME280;62146;53.232;-1.304;2023-03-13T07:45:08;97108.75;;;11.94;100.00
73817;BME280;62146;53.232;-1.304;2023-03-13T07:47:34;97104.53;;;11.93;100.00
73817;BME280;62146;53.232;-1.304;2023-03-13T07:50:01;97117.06;;;11.93;100.00
73817;BME280;62146;53.232;-1.304;2023-03-13T07:52:28;97103.66;;;11.89;100.00
73817;BME280;62146;53.232;-1.304;2023-03-13T07:54:55;97107.41;;;11.88;100.00
73817;BME280;62146;53.232;-1.304;2023-03-13T07:57:21;97105.53;;;11.89;100.00
73817;BME280;62146;53.232;-1.304;2023-03-13T07:59:48;97103.19;;;11.87;100.00
73817;BME280;62146;53.232;-1.304;2023-03-13T08:02:14;97106.63;;;11.88;100.00
73817;BME280;62146;53.232;-1.304;2023-03-13T08:04:42;97088.81;;;11.88;100.00
73817;BME280;62146;53.232;-1.304;2023-03-13T08:07:10;97087.25;;;11.87;100.00
73817;BME280;62146;53.232;-1.304;2023-03-13T08:09:37;97101.22;;;11.84;100.00
73817;BME280;62146;53.232;-1.304;2023-03-13T08:12:03;97087.47;;;11.82;100.00
73817;BME280;62146;53.232;-1.304;2023-03-13T08:14:30;97085.47;;;11.79;100.00
73817;BME280;62146;53.232;-1.304;2023-03-13T08:16:57;97090.00;;;11.79;100.00
73817;BME280;62146;53.232;-1.304;2023-03-13T08:19:23;97090.22;;;11.74;100.00
73817;BME280;62146;53.232;-1.304;2023-03-13T08:21:50;97100.69;;;11.71;100.00
73817;BME280;62146;53.232;-1.304;2023-03-13T08:24:17;97104.78;;;11.68;100.00
73817;BME280;62146;53.232;-1.304;2023-03-13T08:26:43;97109.66;;;11.66;100.00
73817;BME280;62146;53.232;-1.304;2023-03-13T08:29:12;97097.78;;;11.64;100.00
73817;BME280;62146;53.232;-1.304;2023-03-13T08:31:45;97105.75;;;11.64;100.00
73817;BME280;62146;53.232;-1.304;2023-03-13T08:34:14;97093.59;;;11.63;100.00
73817;BME280;62146;53.232;-1.304;2023-03-13T08:36:41;97099.34;;;11.65;100.00
73817;BME280;62146;53.232;-1.304;2023-03-13T08:39:15;97097.50;;;11.65;100.00
73817;BME280;62146;53.232;-1.304;2023-03-13T08:41:43;97085.00;;;11.66;100.00
73817;BME280;62146;53.232;-1.304;2023-03-13T08:44:11;97088.84;;;11.68;100.00
73817;BME280;62146;53.232;-1.304;2023-03-13T08:46:39;97077.47;;;11.68;100.00
73817;BME280;62146;53.232;-1.304;2023-03-13T08:49:07;97081.66;;;11.69;100.00
73817;BME280;62146;53.232;-1.304;2023-03-13T08:51:34;97070.28;;;11.68;100.00
73817;BME280;62146;53.232;-1.304;2023-03-13T08:54:02;97074.94;;;11.71;100.00
73817;BME280;62146;53.232;-1.304;2023-03-13T08:56:29;97068.50;;;11.72;100.00
73817;BME280;62146;53.232;-1.304;2023-03-13T08:58:59;97063.19;;;11.72;100.00
73817;BME280;62146;53.232;-1.304;2023-03-13T09:01:28;97059.47;;;11.73;100.00
73817;BME280;62146;53.232;-1.304;2023-03-13T09:03:57;97046.63;;;11.75;100.00
73817;BME280;62146;53.232;-1.304;2023-03-13T09:06:28;97051.16;;;11.75;100.00
73817;BME280;62146;53.232;-1.304;2023-03-13T09:08:58;97042.09;;;11.76;100.00
73817;BME280;62146;53.232;-1.304;2023-03-13T09:11:25;97042.97;;;11.79;100.00
73817;BME280;62146;53.232;-1.304;2023-03-13T09:13:51;97049.88;;;11.80;100.00
73817;BME280;62146;53.232;-1.304;2023-03-13T09:16:20;97044.22;;;11.82;100.00
73817;BME280;62146;53.232;-1.304;2023-03-13T09:18:48;97029.53;;;11.84;100.00
73817;BME280;62146;53.232;-1.304;2023-03-13T09:21:23;97043.34;;;11.90;100.00
73817;BME280;62146;53.232;-1.304;2023-03-13T09:23:51;97045.47;;;11.96;100.00
73817;BME280;62146;53.232;-1.304;2023-03-13T09:26:19;97032.41;;;12.03;100.00
73817;BME280;62146;53.232;-1.304;2023-03-13T09:28:49;97048.28;;;12.11;100.00
73817;BME280;62146;53.232;-1.304;2023-03-13T09:31:22;97034.53;;;12.21;100.00
73817;BME280;62146;53.232;-1.304;2023-03-13T09:33:50;97034.88;;;12.31;100.00
73817;BME280;62146;53.232;-1.304;2023-03-13T09:36:18;97064.66;;;12.37;100.00
73817;BME280;62146;53.232;-1.304;2023-03-13T09:38:49;97011.63;;;12.40;100.00
73817;BME280;62146;53.232;-1.304;2023-03-13T09:44:02;97021.25;;;12.45;100.00
73817;BME280;62146;53.232;-1.304;2023-03-13T09:51:46;97007.41;;;12.51;100.00
73817;BME280;62146;53.232;-1.304;2023-03-13T09:54:37;96996.13;;;12.54;100.00
73817;BME280;62146;53.232;-1.304;2023-03-13T09:59:43;96995.47;;;12.57;100.00
73817;BME280;62146;53.232;-1.304;2023-03-13T10:02:31;96984.13;;;12.60;100.00
73817;BME280;62146;53.232;-1.304;2023-03-13T10:05:11;96978.81;;;12.60;100.00
73817;BME280;62146;53.232;-1.304;2023-03-13T10:07:39;96983.81;;;12.61;100.00
73817;BME280;62146;53.232;-1.304;2023-03-13T10:10:32;96977.84;;;12.64;100.00
73817;BME280;62146;53.232;-1.304;2023-03-13T10:13:12;96972.28;;;12.69;100.00
73817;BME280;62146;53.232;-1.304;2023-03-13T10:15:49;96978.78;;;12.72;100.00
73817;BME280;62146;53.232;-1.304;2023-03-13T10:18:20;96980.16;;;12.78;100.00
73817;BME280;62146;53.232;-1.304;2023-03-13T10:20:49;96974.94;;;12.81;100.00
73817;BME280;62146;53.232;-1.304;2023-03-13T10:23:29;96984.56;;;12.85;100.00
73817;BME280;62146;53.232;-1.304;2023-03-13T10:26:02;96968.81;;;12.92;100.00
73817;BME280;62146;53.232;-1.304;2023-03-13T10:28:29;96996.72;;;12.98;100.00
73817;BME280;62146;53.232;-1.304;2023-03-13T10:31:18;96999.16;;;13.03;100.00
73817;BME280;62146;53.232;-1.304;2023-03-13T10:33:48;96996.94;;;13.05;100.00
73817;BME280;62146;53.232;-1.304;2023-03-13T10:36:14;97002.34;;;13.09;100.00
73817;BME280;62146;53.232;-1.304;2023-03-13T10:41:22;97015.75;;;13.12;100.00
73817;BME280;62146;53.232;-1.304;2023-03-13T10:43:52;97018.41;;;13.12;100.00
73817;BME280;62146;53.232;-1.304;2023-03-13T10:46:31;97008.53;;;13.12;100.00
73817;BME280;62146;53.232;-1.304;2023-03-13T10:49:03;97024.09;;;13.11;100.00
73817;BME280;62146;53.232;-1.304;2023-03-13T10:51:39;97030.50;;;13.10;100.00
73817;BME280;62146;53.232;-1.304;2023-03-13T10:54:14;97028.19;;;13.08;100.00
73817;BME280;62146;53.232;-1.304;2023-03-13T10:56:42;97024.41;;;13.09;100.00
73817;BME280;62146;53.232;-1.304;2023-03-13T10:59:25;97030.50;;;13.10;100.00
73817;BME280;62146;53.232;-1.304;2023-03-13T11:01:53;97013.75;;;13.09;100.00
73817;BME280;62146;53.232;-1.304;2023-03-13T11:04:32;97038.47;;;13.10;100.00
73817;BME280;62146;53.232;-1.304;2023-03-13T11:07:26;97053.00;;;13.12;100.00
73817;BME280;62146;53.232;-1.304;2023-03-13T11:10:02;97045.91;;;13.16;100.00
73817;BME280;62146;53.232;-1.304;2023-03-13T11:12:43;97044.88;;;13.20;100.00
73817;BME280;62146;53.232;-1.304;2023-03-13T11:15:16;97065.50;;;13.23;100.00
73817;BME280;62146;53.232;-1.304;2023-03-13T11:17:47;97057.38;;;13.32;100.00
73817;BME280;62146;53.232;-1.304;2023-03-13T11:20:35;97073.13;;;13.37;100.00
73817;BME280;62146;53.232;-1.304;2023-03-13T11:23:29;97063.38;;;13.40;100.00
73817;BME280;62146;53.232;-1.304;2023-03-13T11:26:36;97078.41;;;13.48;100.00
73817;BME280;62146;53.232;-1.304;2023-03-13T11:29:23;97072.50;;;13.55;100.00
73817;BME280;62146;53.232;-1.304;2023-03-13T11:32:03;97093.56;;;13.60;100.00
73817;BME280;62146;53.232;-1.304;2023-03-13T11:34:42;97092.56;;;13.64;100.00
73817;BME280;62146;53.232;-1.304;2023-03-13T11:37:14;97099.44;;;13.65;100.00
73817;BME280;62146;53.232;-1.304;2023-03-13T11:42:56;97089.13;;;13.64;100.00
73817;BME280;62146;53.232;-1.304;2023-03-13T11:48:43;97098.03;;;13.56;100.00
73817;BME280;62146;53.232;-1.304;2023-03-13T11:56:50;97096.69;;;13.50;100.00
73817;BME280;62146;53.232;-1.304;2023-03-13T12:02:34;97093.28;;;13.49;100.00
73817;BME280;62146;53.232;-1.304;2023-03-13T12:05:06;97092.81;;;13.47;100.00
73817;BME280;62146;53.232;-1.304;2023-03-13T12:07:49;97075.75;;;13.48;100.00
73817;BME280;62146;53.232;-1.304;2023-03-13T12:10:29;97073.09;;;13.48;100.00
73817;BME280;62146;53.232;-1.304;2023-03-13T12:13:07;97071.97;;;13.49;100.00
73817;BME280;62146;53.232;-1.304;2023-03-13T12:15:41;97075.41;;;13.50;100.00
73817;BME280;62146;53.232;-1.304;2023-03-13T12:18:24;97080.72;;;13.50;100.00
73817;BME280;62146;53.232;-1.304;2023-03-13T12:21:04;97079.59;;;13.51;100.00
73817;BME280;62146;53.232;-1.304;2023-03-13T12:26:18;97095.16;;;13.49;100.00
73817;BME280;62146;53.232;-1.304;2023-03-13T12:31:35;97105.72;;;13.45;100.00
73817;BME280;62146;53.232;-1.304;2023-03-13T12:34:23;97111.34;;;13.44;100.00
73817;BME280;62146;53.232;-1.304;2023-03-13T12:37:22;97111.59;;;13.39;100.00
73817;BME280;62146;53.232;-1.304;2023-03-13T12:40:04;97104.16;;;13.33;100.00
73817;BME280;62146;53.232;-1.304;2023-03-13T12:45:01;97115.97;;;13.20;100.00
73817;BME280;62146;53.232;-1.304;2023-03-13T12:48:04;97108.63;;;13.17;100.00
73817;BME280;62146;53.232;-1.304;2023-03-13T12:50:52;97095.22;;;13.13;100.00
73817;BME280;62146;53.232;-1.304;2023-03-13T12:58:45;97094.56;;;13.16;100.00
73817;BME280;62146;53.232;-1.304;2023-03-13T13:01:20;97091.25;;;13.19;100.00
73817;BME280;62146;53.232;-1.304;2023-03-13T13:03:58;97097.44;;;13.23;100.00
73817;BME280;62146;53.232;-1.304;2023-03-13T13:06:48;97098.66;;;13.26;100.00
73817;BME280;62146;53.232;-1.304;2023-03-13T13:09:22;97096.09;;;13.29;100.00
73817;BME280;62146;53.232;-1.304;2023-03-13T13:11:49;97090.88;;;13.33;100.00
73817;BME280;62146;53.232;-1.304;2023-03-13T13:16:48;97098.53;;;13.34;100.00
73817;BME280;62146;53.232;-1.304;2023-03-13T13:24:59;97085.63;;;13.36;100.00
73817;BME280;62146;53.232;-1.304;2023-03-13T13:30:15;97080.78;;;13.38;100.00
73817;BME280;62146;53.232;-1.304;2023-03-13T13:32:53;97077.44;;;13.41;100.00
73817;BME280;62146;53.232;-1.304;2023-03-13T13:35:25;97072.88;;;13.41;100.00
73817;BME280;62146;53.232;-1.304;2023-03-13T13:38:18;97066.53;;;13.46;100.00
73817;BME280;62146;53.232;-1.304;2023-03-13T13:40:39;97072.75;;;13.50;100.00
73817;BME280;62146;53.232;-1.304;2023-03-13T13:43:21;97078.84;;;13.50;100.00
73817;BME280;62146;53.232;-1.304;2023-03-13T13:48:39;97059.03;;;13.63;100.00
73817;BME280;62146;53.232;-1.304;2023-03-13T13:53:46;97060.97;;;13.78;100.00
73817;BME280;62146;53.232;-1.304;2023-03-13T13:56:38;97063.16;;;13.88;100.00